sensor_id;sensor_type;location;lat;lon;timestamp;P1;durP1;ratioP1;P2;durP2;ratioP2
22652;SDS011;11493;43.344;26.226;2023-04-28T00:00:34;7.07;;;3.25;;
22652;SDS011;11493;43.344;26.226;2023-04-28T00:03:02;13.68;;;3.38;;
22652;SDS011;11493;43.344;26.226;2023-04-28T00:05:29;9.05;;;3.17;;
22652;SDS011;11493;43.344;26.226;2023-04-28T00:07:56;4.72;;;3.55;;
22652;SDS011;11493;43.344;26.226;2023-04-28T00:10:23;6.78;;;3.45;;
22652;SDS011;11493;43.344;26.226;2023-04-28T00:12:50;7.38;;;3.15;;
22652;SDS011;11493;43.344;26.226;2023-04-28T00:15:16;6.75;;;3.10;;
22652;SDS011;11493;43.344;26.226;2023-04-28T00:17:43;5.30;;;2.90;;
22652;SDS011;11493;43.344;26.226;2023-04-28T00:20:13;6.63;;;3.33;;
22652;SDS011;11493;43.344;26.226;2023-04-28T00:22:40;6.68;;;3.30;;
22652;SDS011;11493;43.344;26.226;2023-04-28T00:25:07;4.65;;;3.60;;
22652;SDS011;11493;43.344;26.226;2023-04-28T00:27:34;4.75;;;3.47;;
22652;SDS011;11493;43.344;26.226;2023-04-28T00:30:01;4.15;;;3.65;;
22652;SDS011;11493;43.344;26.226;2023-04-28T00:32:29;9.93;;;3.33;;
22652;SDS011;11493;43.344;26.226;2023-04-28T00:34:56;5.03;;;3.58;;
22652;SDS011;11493;43.344;26.226;2023-04-28T00:37:23;5.97;;;3.75;;
22652;SDS011;11493;43.344;26.226;2023-04-28T00:39:56;4.28;;;3.65;;
22652;SDS011;11493;43.344;26.226;2023-04-28T00:42:24;3.72;;;3.42;;
22652;SDS011;11493;43.344;26.226;2023-04-28T00:44:51;5.82;;;4.45;;
22652;SDS011;11493;43.344;26.226;2023-04-28T00:47:19;8.50;;;4.38;;
22652;SDS011;11493;43.344;26.226;2023-04-28T00:49:45;6.30;;;4.20;;
22652;SDS011;11493;43.344;26.226;2023-04-28T00:52:15;7.03;;;4.57;;
22652;SDS011;11493;43.344;26.226;2023-04-28T00:54:41;6.50;;;4.10;;
22652;SDS011;11493;43.344;26.226;2023-04-28T00:57:09;6.30;;;4.00;;
22652;SDS011;11493;43.344;26.226;2023-04-28T00:59:36;7.82;;;4.50;;
22652;SDS011;11493;43.344;26.226;2023-04-28T01:02:03;7.30;;;4.45;;
22652;SDS011;11493;43.344;26.226;2023-04-28T01:04:32;7.38;;;5.05;;
22652;SDS011;11493;43.344;26.226;2023-04-28T01:06:59;14.75;;;7.35;;
22652;SDS011;11493;43.344;26.226;2023-04-28T01:09:27;11.10;;;8.05;;
22652;SDS011;11493;43.344;26.226;2023-04-28T01:11:55;14.30;;;9.07;;
22652;SDS011;11493;43.344;26.226;2023-04-28T01:14:45;22.52;;;9.00;;
22652;SDS011;11493;43.344;26.226;2023-04-28T01:17:12;13.25;;;10.38;;
22652;SDS011;11493;43.344;26.226;2023-04-28T01:19:39;11.40;;;9.25;;
22652;SDS011;11493;43.344;26.226;2023-04-28T01:22:06;11.55;;;9.13;;
22652;SDS011;11493;43.344;26.226;2023-04-28T01:24:36;13.80;;;9.43;;
22652;SDS011;11493;43.344;26.226;2023-04-28T01:27:05;12.40;;;9.02;;
22652;SDS011;11493;43.344;26.226;2023-04-28T01:29:32;14.02;;;8.75;;
22652;SDS011;11493;43.344;26.226;2023-04-28T01:31:59;11.07;;;7.88;;
22652;SDS011;11493;43.344;26.226;2023-04-28T01:34:26;12.48;;;7.80;;
22652;SDS011;11493;43.344;26.226;2023-04-28T01:36:53;12.77;;;7.30;;
22652;SDS011;11493;43.344;26.226;2023-04-28T01:39:20;13.40;;;7.22;;
22652;SDS011;11493;43.344;26.226;2023-04-28T01:41:47;13.98;;;10.27;;
22652;SDS011;11493;43.344;26.226;2023-04-28T01:44:14;26.45;;;17.85;;
22652;SDS011;11493;43.344;26.226;2023-04-28T01:46:41;15.80;;;11.27;;
22652;SDS011;11493;43.344;26.226;2023-04-28T01:49:08;22.17;;;11.35;;
22652;SDS011;11493;43.344;26.226;2023-04-28T01:51:35;14.90;;;10.43;;
22652;SDS011;11493;43.344;26.226;2023-04-28T01:54:03;20.10;;;12.43;;
22652;SDS011;11493;43.344;26.226;2023-04-28T01:56:30;15.75;;;10.23;;
22652;SDS011;11493;43.344;26.226;2023-04-28T01:58:58;13.65;;;9.75;;
22652;SDS011;11493;43.344;26.226;2023-04-28T02:01:25;11.15;;;8.90;;
22652;SDS011;11493;43.344;26.226;2023-04-28T02:03:53;14.35;;;8.70;;
22652;SDS011;11493;43.344;26.226;2023-04-28T02:06:22;13.85;;;9.52;;
22652;SDS011;11493;43.344;26.226;2023-04-28T02:08:49;15.73;;;8.55;;
22652;SDS011;11493;43.344;26.226;2023-04-28T02:11:16;20.10;;;9.45;;
22652;SDS011;11493;43.344;26.226;2023-04-28T02:13:43;17.60;;;9.93;;
22652;SDS011;11493;43.344;26.226;2023-04-28T02:16:10;16.33;;;8.07;;
22652;SDS011;11493;43.344;26.226;2023-04-28T02:18:37;11.68;;;8.48;;
22652;SDS011;11493;43.344;26.226;2023-04-28T02:21:10;13.27;;;8.93;;
22652;SDS011;11493;43.344;26.226;2023-04-28T02:23:38;14.45;;;8.43;;
22652;SDS011;11493;43.344;26.226;2023-04-28T02:26:06;11.68;;;7.60;;
22652;SDS011;11493;43.344;26.226;2023-04-28T02:28:33;11.23;;;7.88;;
22652;SDS011;11493;43.344;26.226;2023-04-28T02:31:03;10.23;;;7.32;;
22652;SDS011;11493;43.344;26.226;2023-04-28T02:33:31;15.90;;;8.05;;
22652;SDS011;11493;43.344;26.226;2023-04-28T02:35:59;13.88;;;8.80;;
22652;SDS011;11493;43.344;26.226;2023-04-28T02:38:26;11.65;;;8.70;;
22652;SDS011;11493;43.344;26.226;2023-04-28T02:41:00;9.63;;;8.07;;
22652;SDS011;11493;43.344;26.226;2023-04-28T02:43:28;13.88;;;9.35;;
22652;SDS011;11493;43.344;26.226;2023-04-28T02:45:55;13.80;;;9.55;;
22652;SDS011;11493;43.344;26.226;2023-04-28T02:48:23;13.55;;;9.13;;
22652;SDS011;11493;43.344;26.226;2023-04-28T02:50:51;12.20;;;9.88;;
22652;SDS011;11493;43.344;26.226;2023-04-28T02:53:19;21.08;;;13.68;;
22652;SDS011;11493;43.344;26.226;2023-04-28T02:55:47;19.98;;;13.10;;
22652;SDS011;11493;43.344;26.226;2023-04-28T02:58:15;26.98;;;11.65;;
22652;SDS011;11493;43.344;26.226;2023-04-28T03:00:44;21.50;;;12.50;;
22652;SDS011;11493;43.344;26.226;2023-04-28T03:03:12;22.27;;;14.02;;
22652;SDS011;11493;43.344;26.226;2023-04-28T03:05:39;20.25;;;13.65;;
22652;SDS011;11493;43.344;26.226;2023-04-28T03:08:06;21.98;;;15.23;;
22652;SDS011;11493;43.344;26.226;2023-04-28T03:10:33;22.80;;;15.32;;
22652;SDS011;11493;43.344;26.226;2023-04-28T03:13:02;36.90;;;18.48;;
22652;SDS011;11493;43.344;26.226;2023-04-28T03:15:29;27.17;;;18.10;;
22652;SDS011;11493;43.344;26.226;2023-04-28T03:17:56;18.20;;;14.95;;
22652;SDS011;11493;43.344;26.226;2023-04-28T03:20:23;19.67;;;15.70;;
22652;SDS011;11493;43.344;26.226;2023-04-28T03:22:50;19.35;;;13.73;;
22652;SDS011;11493;43.344;26.226;2023-04-28T03:25:17;17.35;;;12.68;;
22652;SDS011;11493;43.344;26.226;2023-04-28T03:27:47;17.98;;;10.63;;
22652;SDS011;11493;43.344;26.226;2023-04-28T03:30:14;16.52;;;10.77;;
22652;SDS011;11493;43.344;26.226;2023-04-28T03:32:41;15.07;;;9.13;;
22652;SDS011;11493;43.344;26.226;2023-04-28T03:35:09;13.27;;;9.77;;
22652;SDS011;11493;43.344;26.226;2023-04-28T03:37:37;21.38;;;11.75;;
22652;SDS011;11493;43.344;26.226;2023-04-28T03:40:05;25.73;;;13.95;;
22652;SDS011;11493;43.344;26.226;2023-04-28T03:42:52;21.23;;;12.15;;
22652;SDS011;11493;43.344;26.226;2023-04-28T03:45:29;14.48;;;10.65;;
22652;SDS011;11493;43.344;26.226;2023-04-28T03:47:57;15.63;;;10.55;;
22652;SDS011;11493;43.344;26.226;2023-04-28T03:50:24;10.38;;;7.40;;
22652;SDS011;11493;43.344;26.226;2023-04-28T03:52:53;9.93;;;7.07;;
22652;SDS011;11493;43.344;26.226;2023-04-28T03:55:21;12.27;;;8.00;;
22652;SDS011;11493;43.344;26.226;2023-04-28T03:57:49;8.60;;;7.70;;
22652;SDS011;11493;43.344;26.226;2023-04-28T04:00:17;16.65;;;9.88;;
22652;SDS011;11493;43.344;26.226;2023-04-28T04:02:46;9.25;;;8.35;;
22652;SDS011;11493;43.344;26.226;2023-04-28T04:05:14;9.95;;;7.18;;
22652;SDS011;11493;43.344;26.226;2023-04-28T04:07:41;14.35;;;8.10;;
22652;SDS011;11493;43.344;26.226;2023-04-28T04:10:09;9.73;;;5.90;;
22652;SDS011;11493;43.344;26.226;2023-04-28T04:12:39;9.85;;;5.47;;
22652;SDS011;11493;43.344;26.226;2023-04-28T04:15:06;6.68;;;5.53;;
22652;SDS011;11493;43.344;26.226;2023-04-28T04:17:34;8.13;;;5.57;;
22652;SDS011;11493;43.344;26.226;2023-04-28T04:20:01;7.00;;;4.57;;
22652;SDS011;11493;43.344;26.226;2023-04-28T04:22:28;5.45;;;4.95;;
22652;SDS011;11493;43.344;26.226;2023-04-28T04:24:55;9.82;;;5.93;;
22652;SDS011;11493;43.344;26.226;2023-04-28T04:27:24;8.52;;;5.10;;
22652;SDS011;11493;43.344;26.226;2023-04-28T04:29:51;10.00;;;5.20;;
22652;SDS011;11493;43.344;26.226;2023-04-28T04:32:18;5.15;;;4.00;;
22652;SDS011;11493;43.344;26.226;2023-04-28T04:34:46;8.45;;;4.50;;
22652;SDS011;11493;43.344;26.226;2023-04-28T04:37:13;8.82;;;4.65;;
22652;SDS011;11493;43.344;26.226;2023-04-28T04:39:53;14.73;;;5.10;;
22652;SDS011;11493;43.344;26.226;2023-04-28T04:42:20;8.38;;;4.93;;
22652;SDS011;11493;43.344;26.226;2023-04-28T04:45:06;6.05;;;3.70;;
22652;SDS011;11493;43.344;26.226;2023-04-28T04:47:34;8.30;;;4.57;;
22652;SDS011;11493;43.344;26.226;2023-04-28T04:50:01;6.65;;;4.05;;
22652;SDS011;11493;43.344;26.226;2023-04-28T04:52:28;6.57;;;3.03;;
22652;SDS011;11493;43.344;26.226;2023-04-28T04:54:55;4.32;;;3.20;;
22652;SDS011;11493;43.344;26.226;2023-04-28T04:57:23;11.32;;;5.22;;
22652;SDS011;11493;43.344;26.226;2023-04-28T05:00:13;4.90;;;3.55;;
22652;SDS011;11493;43.344;26.226;2023-04-28T05:02:42;4.18;;;3.50;;
22652;SDS011;11493;43.344;26.226;2023-04-28T05:05:11;7.18;;;4.18;;
22652;SDS011;11493;43.344;26.226;2023-04-28T05:08:02;8.10;;;4.30;;
22652;SDS011;11493;43.344;26.226;2023-04-28T05:10:29;10.60;;;9.48;;
22652;SDS011;11493;43.344;26.226;2023-04-28T05:12:57;6.35;;;5.68;;
22652;SDS011;11493;43.344;26.226;2023-04-28T05:15:24;7.90;;;5.78;;
22652;SDS011;11493;43.344;26.226;2023-04-28T05:18:10;8.68;;;4.05;;
22652;SDS011;11493;43.344;26.226;2023-04-28T05:20:39;9.18;;;4.03;;
22652;SDS011;11493;43.344;26.226;2023-04-28T05:23:06;4.82;;;4.07;;
22652;SDS011;11493;43.344;26.226;2023-04-28T05:25:33;5.60;;;3.80;;
22652;SDS011;11493;43.344;26.226;2023-04-28T05:28:01;6.90;;;4.38;;
22652;SDS011;11493;43.344;26.226;2023-04-28T05:30:33;7.45;;;3.40;;
22652;SDS011;11493;43.344;26.226;2023-04-28T05:33:00;6.35;;;3.53;;
22652;SDS011;11493;43.344;26.226;2023-04-28T05:35:27;6.25;;;2.90;;
22652;SDS011;11493;43.344;26.226;2023-04-28T05:37:56;10.55;;;3.45;;
22652;SDS011;11493;43.344;26.226;2023-04-28T05:40:24;4.72;;;3.60;;
22652;SDS011;11493;43.344;26.226;2023-04-28T05:42:53;10.95;;;4.30;;
22652;SDS011;11493;43.344;26.226;2023-04-28T05:45:20;4.80;;;3.20;;
22652;SDS011;11493;43.344;26.226;2023-04-28T05:47:48;29.98;;;13.93;;
22652;SDS011;11493;43.344;26.226;2023-04-28T05:50:15;28.50;;;13.50;;
22652;SDS011;11493;43.344;26.226;2023-04-28T05:52:42;27.40;;;14.82;;
22652;SDS011;11493;43.344;26.226;2023-04-28T05:55:09;7.20;;;3.28;;
22652;SDS011;11493;43.344;26.226;2023-04-28T05:57:37;6.07;;;2.92;;
22652;SDS011;11493;43.344;26.226;2023-04-28T06:00:18;4.75;;;2.70;;
22652;SDS011;11493;43.344;26.226;2023-04-28T06:02:45;22.73;;;14.85;;
22652;SDS011;11493;43.344;26.226;2023-04-28T06:05:12;14.93;;;8.77;;
22652;SDS011;11493;43.344;26.226;2023-04-28T06:07:41;9.95;;;3.50;;
22652;SDS011;11493;43.344;26.226;2023-04-28T06:10:08;5.75;;;2.83;;
22652;SDS011;11493;43.344;26.226;2023-04-28T06:12:35;9.68;;;2.45;;
22652;SDS011;11493;43.344;26.226;2023-04-28T06:15:03;3.30;;;2.45;;
22652;SDS011;11493;43.344;26.226;2023-04-28T06:17:32;6.78;;;2.85;;
22652;SDS011;11493;43.344;26.226;2023-04-28T06:19:59;4.68;;;2.10;;
22652;SDS011;11493;43.344;26.226;2023-04-28T06:22:26;5.35;;;1.95;;
22652;SDS011;11493;43.344;26.226;2023-04-28T06:24:53;3.58;;;2.08;;
22652;SDS011;11493;43.344;26.226;2023-04-28T06:27:28;6.32;;;2.30;;
22652;SDS011;11493;43.344;26.226;2023-04-28T06:29:58;7.90;;;2.20;;
22652;SDS011;11493;43.344;26.226;2023-04-28T06:32:25;6.60;;;2.28;;
22652;SDS011;11493;43.344;26.226;2023-04-28T06:34:52;3.33;;;2.20;;
22652;SDS011;11493;43.344;26.226;2023-04-28T06:37:21;4.68;;;2.17;;
22652;SDS011;11493;43.344;26.226;2023-04-28T06:39:48;9.75;;;2.38;;
22652;SDS011;11493;43.344;26.226;2023-04-28T06:42:16;8.07;;;2.20;;
22652;SDS011;11493;43.344;26.226;2023-04-28T06:44:51;6.15;;;3.45;;
22652;SDS011;11493;43.344;26.226;2023-04-28T06:47:18;4.72;;;1.60;;
22652;SDS011;11493;43.344;26.226;2023-04-28T06:49:46;4.75;;;2.30;;
22652;SDS011;11493;43.344;26.226;2023-04-28T06:52:15;4.35;;;1.73;;
22652;SDS011;11493;43.344;26.226;2023-04-28T06:54:42;3.22;;;1.55;;
22652;SDS011;11493;43.344;26.226;2023-04-28T06:57:09;5.93;;;2.15;;
22652;SDS011;11493;43.344;26.226;2023-04-28T06:59:36;2.28;;;1.60;;
22652;SDS011;11493;43.344;26.226;2023-04-28T07:02:03;6.65;;;2.60;;
22652;SDS011;11493;43.344;26.226;2023-04-28T07:04:31;5.60;;;1.80;;
22652;SDS011;11493;43.344;26.226;2023-04-28T07:06:57;5.90;;;1.70;;
22652;SDS011;11493;43.344;26.226;2023-04-28T07:09:24;6.47;;;2.05;;
22652;SDS011;11493;43.344;26.226;2023-04-28T07:11:52;4.53;;;2.00;;
22652;SDS011;11493;43.344;26.226;2023-04-28T07:14:19;3.58;;;1.92;;
22652;SDS011;11493;43.344;26.226;2023-04-28T07:16:46;6.35;;;2.67;;
22652;SDS011;11493;43.344;26.226;2023-04-28T07:19:14;5.45;;;2.35;;
22652;SDS011;11493;43.344;26.226;2023-04-28T07:21:41;4.35;;;2.08;;
22652;SDS011;11493;43.344;26.226;2023-04-28T07:24:08;3.47;;;1.90;;
22652;SDS011;11493;43.344;26.226;2023-04-28T07:26:35;7.18;;;2.15;;
22652;SDS011;11493;43.344;26.226;2023-04-28T07:29:02;4.28;;;2.00;;
22652;SDS011;11493;43.344;26.226;2023-04-28T07:31:29;3.53;;;1.90;;
22652;SDS011;11493;43.344;26.226;2023-04-28T07:33:57;3.88;;;2.03;;
22652;SDS011;11493;43.344;26.226;2023-04-28T07:36:25;4.18;;;1.70;;
22652;SDS011;11493;43.344;26.226;2023-04-28T07:38:52;3.55;;;1.50;;
22652;SDS011;11493;43.344;26.226;2023-04-28T07:41:20;2.53;;;1.70;;
22652;SDS011;11493;43.344;26.226;2023-04-28T07:43:47;4.45;;;2.30;;
22652;SDS011;11493;43.344;26.226;2023-04-28T07:46:14;3.70;;;1.98;;
22652;SDS011;11493;43.344;26.226;2023-04-28T07:48:41;19.05;;;2.10;;
22652;SDS011;11493;43.344;26.226;2023-04-28T07:51:08;10.85;;;2.30;;
22652;SDS011;11493;43.344;26.226;2023-04-28T07:53:35;3.60;;;2.20;;
22652;SDS011;11493;43.344;26.226;2023-04-28T07:56:02;6.72;;;2.25;;
22652;SDS011;11493;43.344;26.226;2023-04-28T07:58:30;5.20;;;1.90;;
22652;SDS011;11493;43.344;26.226;2023-04-28T08:00:57;7.10;;;2.00;;
22652;SDS011;11493;43.344;26.226;2023-04-28T08:03:24;2.88;;;1.90;;
22652;SDS011;11493;43.344;26.226;2023-04-28T08:05:51;4.78;;;1.95;;
22652;SDS011;11493;43.344;26.226;2023-04-28T08:08:18;3.83;;;2.00;;
22652;SDS011;11493;43.344;26.226;2023-04-28T08:10:45;4.10;;;1.90;;
22652;SDS011;11493;43.344;26.226;2023-04-28T08:13:12;3.97;;;1.60;;
22652;SDS011;11493;43.344;26.226;2023-04-28T08:15:39;2.55;;;1.38;;
22652;SDS011;11493;43.344;26.226;2023-04-28T08:18:06;4.53;;;1.20;;
22652;SDS011;11493;43.344;26.226;2023-04-28T08:20:34;3.33;;;1.45;;
22652;SDS011;11493;43.344;26.226;2023-04-28T08:23:01;2.15;;;1.40;;
22652;SDS011;11493;43.344;26.226;2023-04-28T08:25:28;4.05;;;1.60;;
22652;SDS011;11493;43.344;26.226;2023-04-28T08:27:55;11.85;;;2.00;;
22652;SDS011;11493;43.344;26.226;2023-04-28T08:30:23;3.80;;;1.55;;
22652;SDS011;11493;43.344;26.226;2023-04-28T08:32:50;10.57;;;1.50;;
22652;SDS011;11493;43.344;26.226;2023-04-28T08:35:17;5.82;;;1.65;;
22652;SDS011;11493;43.344;26.226;2023-04-28T08:37:44;2.53;;;1.55;;
22652;SDS011;11493;43.344;26.226;2023-04-28T08:40:15;4.60;;;1.70;;
22652;SDS011;11493;43.344;26.226;2023-04-28T08:42:41;2.00;;;1.38;;
22652;SDS011;11493;43.344;26.226;2023-04-28T08:45:14;4.60;;;1.45;;
22652;SDS011;11493;43.344;26.226;2023-04-28T08:47:42;8.70;;;1.67;;
22652;SDS011;11493;43.344;26.226;2023-04-28T08:50:13;2.92;;;1.20;;
22652;SDS011;11493;43.344;26.226;2023-04-28T08:52:41;4.57;;;1.95;;
22652;SDS011;11493;43.344;26.226;2023-04-28T08:55:09;4.93;;;1.52;;
22652;SDS011;11493;43.344;26.226;2023-04-28T08:57:41;3.03;;;1.33;;
22652;SDS011;11493;43.344;26.226;2023-04-28T09:00:12;1.77;;;1.33;;
22652;SDS011;11493;43.344;26.226;2023-04-28T09:02:40;7.45;;;1.73;;
22652;SDS011;11493;43.344;26.226;2023-04-28T09:05:11;3.90;;;1.40;;
22652;SDS011;11493;43.344;26.226;2023-04-28T09:07:39;3.75;;;1.60;;
22652;SDS011;11493;43.344;26.226;2023-04-28T09:12:47;3.17;;;1.40;;
22652;SDS011;11493;43.344;26.226;2023-04-28T09:15:27;2.35;;;1.20;;
22652;SDS011;11493;43.344;26.226;2023-04-28T09:20:27;3.60;;;1.23;;
22652;SDS011;11493;43.344;26.226;2023-04-28T09:26:16;2.70;;;1.23;;
22652;SDS011;11493;43.344;26.226;2023-04-28T09:28:43;5.82;;;1.35;;
22652;SDS011;11493;43.344;26.226;2023-04-28T09:31:23;4.18;;;1.50;;
22652;SDS011;11493;43.344;26.226;2023-04-28T09:33:58;6.97;;;1.40;;
22652;SDS011;11493;43.344;26.226;2023-04-28T09:36:26;4.10;;;1.60;;
22652;SDS011;11493;43.344;26.226;2023-04-28T09:38:58;2.40;;;1.50;;
22652;SDS011;11493;43.344;26.226;2023-04-28T09:41:36;5.03;;;1.73;;
22652;SDS011;11493;43.344;26.226;2023-04-28T09:44:13;2.33;;;1.45;;
22652;SDS011;11493;43.344;26.226;2023-04-28T09:46:49;8.20;;;1.48;;
22652;SDS011;11493;43.344;26.226;2023-04-28T09:49:16;5.43;;;1.83;;
22652;SDS011;11493;43.344;26.226;2023-04-28T09:51:44;7.07;;;1.42;;
22652;SDS011;11493;43.344;26.226;2023-04-28T09:54:11;4.15;;;1.55;;
22652;SDS011;11493;43.344;26.226;2023-04-28T09:56:39;3.60;;;1.90;;
22652;SDS011;11493;43.344;26.226;2023-04-28T09:59:09;4.50;;;1.25;;
22652;SDS011;11493;43.344;26.226;2023-04-28T10:01:39;5.20;;;1.80;;
22652;SDS011;11493;43.344;26.226;2023-04-28T10:04:07;5.15;;;1.30;;
22652;SDS011;11493;43.344;26.226;2023-04-28T10:06:37;3.67;;;1.97;;
22652;SDS011;11493;43.344;26.226;2023-04-28T10:09:05;4.07;;;1.50;;
22652;SDS011;11493;43.344;26.226;2023-04-28T10:11:33;3.88;;;1.30;;
22652;SDS011;11493;43.344;26.226;2023-04-28T10:14:01;8.68;;;1.55;;
22652;SDS011;11493;43.344;26.226;2023-04-28T10:16:29;4.75;;;1.88;;
22652;SDS011;11493;43.344;26.226;2023-04-28T10:18:58;5.90;;;2.60;;
22652;SDS011;11493;43.344;26.226;2023-04-28T10:21:28;6.45;;;1.98;;
22652;SDS011;11493;43.344;26.226;2023-04-28T10:24:09;3.72;;;2.17;;
22652;SDS011;11493;43.344;26.226;2023-04-28T10:29:24;3.75;;;1.30;;
22652;SDS011;11493;43.344;26.226;2023-04-28T10:40:41;3.63;;;1.58;;
22652;SDS011;11493;43.344;26.226;2023-04-28T10:43:13;5.07;;;1.92;;
22652;SDS011;11493;43.344;26.226;2023-04-28T10:56:17;4.55;;;1.50;;
22652;SDS011;11493;43.344;26.226;2023-04-28T10:58:49;3.60;;;1.40;;
22652;SDS011;11493;43.344;26.226;2023-04-28T11:06:40;4.57;;;1.85;;
22652;SDS011;11493;43.344;26.226;2023-04-28T11:14:36;9.65;;;3.72;;
22652;SDS011;11493;43.344;26.226;2023-04-28T11:17:07;3.72;;;1.42;;
22652;SDS011;11493;43.344;26.226;2023-04-28T11:22:14;4.68;;;2.90;;
22652;SDS011;11493;43.344;26.226;2023-04-28T11:25:04;2.85;;;1.50;;
22652;SDS011;11493;43.344;26.226;2023-04-28T11:27:30;2.53;;;1.52;;
22652;SDS011;11493;43.344;26.226;2023-04-28T11:29:59;3.00;;;2.38;;
22652;SDS011;11493;43.344;26.226;2023-04-28T11:32:28;8.73;;;2.42;;
22652;SDS011;11493;43.344;26.226;2023-04-28T11:34:59;4.15;;;2.33;;
22652;SDS011;11493;43.344;26.226;2023-04-28T11:37:26;4.53;;;3.60;;
22652;SDS011;11493;43.344;26.226;2023-04-28T11:39:53;4.40;;;1.60;;
22652;SDS011;11493;43.344;26.226;2023-04-28T11:42:20;6.57;;;1.75;;
22652;SDS011;11493;43.344;26.226;2023-04-28T11:44:51;3.95;;;1.80;;
22652;SDS011;11493;43.344;26.226;2023-04-28T11:47:31;5.82;;;1.88;;
22652;SDS011;11493;43.344;26.226;2023-04-28T11:50:00;4.25;;;1.40;;
22652;SDS011;11493;43.344;26.226;2023-04-28T11:52:28;4.57;;;1.70;;
22652;SDS011;11493;43.344;26.226;2023-04-28T11:54:56;7.10;;;1.73;;
22652;SDS011;11493;43.344;26.226;2023-04-28T11:57:26;5.72;;;2.00;;
22652;SDS011;11493;43.344;26.226;2023-04-28T11:59:53;3.10;;;2.08;;
22652;SDS011;11493;43.344;26.226;2023-04-28T12:05:12;4.28;;;1.75;;
22652;SDS011;11493;43.344;26.226;2023-04-28T12:07:42;3.33;;;1.70;;
22652;SDS011;11493;43.344;26.226;2023-04-28T12:10:11;2.85;;;1.98;;
22652;SDS011;11493;43.344;26.226;2023-04-28T12:12:41;2.40;;;1.90;;
22652;SDS011;11493;43.344;26.226;2023-04-28T12:15:17;5.57;;;2.10;;
22652;SDS011;11493;43.344;26.226;2023-04-28T12:18:08;2.30;;;1.98;;
22652;SDS011;11493;43.344;26.226;2023-04-28T12:20:37;2.75;;;1.92;;
22652;SDS011;11493;43.344;26.226;2023-04-28T12:23:05;4.65;;;2.38;;
22652;SDS011;11493;43.344;26.226;2023-04-28T12:25:41;5.70;;;1.60;;
22652;SDS011;11493;43.344;26.226;2023-04-28T12:28:09;4.72;;;2.10;;
22652;SDS011;11493;43.344;26.226;2023-04-28T12:30:36;3.72;;;1.73;;
22652;SDS011;11493;43.344;26.226;2023-04-28T12:33:20;3.88;;;2.00;;
22652;SDS011;11493;43.344;26.226;2023-04-28T12:35:52;6.07;;;2.10;;
22652;SDS011;11493;43.344;26.226;2023-04-28T12:38:21;6.95;;;2.38;;
22652;SDS011;11493;43.344;26.226;2023-04-28T12:40:52;4.15;;;2.38;;
22652;SDS011;11493;43.344;26.226;2023-04-28T12:43:19;2.88;;;2.00;;
22652;SDS011;11493;43.344;26.226;2023-04-28T12:45:49;5.88;;;1.95;;
22652;SDS011;11493;43.344;26.226;2023-04-28T12:48:16;8.40;;;3.13;;
22652;SDS011;11493;43.344;26.226;2023-04-28T12:50:44;5.80;;;3.28;;
22652;SDS011;11493;43.344;26.226;2023-04-28T12:53:11;8.45;;;2.08;;
22652;SDS011;11493;43.344;26.226;2023-04-28T12:55:38;7.65;;;2.10;;
22652;SDS011;11493;43.344;26.226;2023-04-28T12:58:06;3.60;;;1.75;;
22652;SDS011;11493;43.344;26.226;2023-04-28T13:00:32;6.25;;;1.80;;
22652;SDS011;11493;43.344;26.226;2023-04-28T13:03:00;52.10;;;21.83;;
22652;SDS011;11493;43.344;26.226;2023-04-28T13:05:27;4.60;;;2.10;;
22652;SDS011;11493;43.344;26.226;2023-04-28T13:07:54;7.03;;;2.00;;
22652;SDS011;11493;43.344;26.226;2023-04-28T13:10:21;6.72;;;2.08;;
22652;SDS011;11493;43.344;26.226;2023-04-28T13:12:49;6.75;;;2.03;;
22652;SDS011;11493;43.344;26.226;2023-04-28T13:15:16;6.07;;;1.70;;
22652;SDS011;11493;43.344;26.226;2023-04-28T13:17:43;5.03;;;1.75;;
22652;SDS011;11493;43.344;26.226;2023-04-28T13:20:12;7.35;;;2.10;;
22652;SDS011;11493;43.344;26.226;2023-04-28T13:22:39;4.40;;;1.35;;
22652;SDS011;11493;43.344;26.226;2023-04-28T13:25:07;7.97;;;1.67;;
22652;SDS011;11493;43.344;26.226;2023-04-28T13:27:34;7.10;;;1.80;;
22652;SDS011;11493;43.344;26.226;2023-04-28T13:30:03;8.25;;;1.80;;
22652;SDS011;11493;43.344;26.226;2023-04-28T13:32:31;6.00;;;2.15;;
22652;SDS011;11493;43.344;26.226;2023-04-28T13:34:58;12.43;;;2.45;;
22652;SDS011;11493;43.344;26.226;2023-04-28T13:37:25;5.20;;;2.20;;
22652;SDS011;11493;43.344;26.226;2023-04-28T13:39:52;4.28;;;2.85;;
22652;SDS011;11493;43.344;26.226;2023-04-28T13:42:19;8.60;;;1.73;;
22652;SDS011;11493;43.344;26.226;2023-04-28T13:44:46;8.95;;;4.63;;
22652;SDS011;11493;43.344;26.226;2023-04-28T13:47:14;4.93;;;2.17;;
22652;SDS011;11493;43.344;26.226;2023-04-28T13:49:41;6.53;;;1.95;;
22652;SDS011;11493;43.344;26.226;2023-04-28T13:52:09;3.53;;;2.40;;
22652;SDS011;11493;43.344;26.226;2023-04-28T13:54:36;5.05;;;2.97;;
22652;SDS011;11493;43.344;26.226;2023-04-28T13:57:03;7.45;;;2.17;;
22652;SDS011;11493;43.344;26.226;2023-04-28T13:59:30;4.88;;;1.92;;
22652;SDS011;11493;43.344;26.226;2023-04-28T14:01:57;4.60;;;1.80;;
22652;SDS011;11493;43.344;26.226;2023-04-28T14:04:24;4.18;;;2.47;;
22652;SDS011;11493;43.344;26.226;2023-04-28T14:06:51;3.60;;;2.50;;
22652;SDS011;11493;43.344;26.226;2023-04-28T14:09:19;7.45;;;2.67;;
22652;SDS011;11493;43.344;26.226;2023-04-28T14:11:47;6.82;;;2.03;;
22652;SDS011;11493;43.344;26.226;2023-04-28T14:14:14;5.03;;;2.30;;
22652;SDS011;11493;43.344;26.226;2023-04-28T14:16:41;5.13;;;3.05;;
22652;SDS011;11493;43.344;26.226;2023-04-28T14:19:08;14.10;;;6.05;;
22652;SDS011;11493;43.344;26.226;2023-04-28T14:21:35;4.45;;;3.15;;
22652;SDS011;11493;43.344;26.226;2023-04-28T14:24:02;4.18;;;2.40;;
22652;SDS011;11493;43.344;26.226;2023-04-28T14:26:29;3.78;;;2.45;;
22652;SDS011;11493;43.344;26.226;2023-04-28T14:28:56;4.15;;;1.70;;
22652;SDS011;11493;43.344;26.226;2023-04-28T14:31:25;5.03;;;3.53;;
22652;SDS011;11493;43.344;26.226;2023-04-28T14:33:52;9.10;;;4.13;;
22652;SDS011;11493;43.344;26.226;2023-04-28T14:36:19;3.88;;;2.80;;
22652;SDS011;11493;43.344;26.226;2023-04-28T14:38:47;12.68;;;3.58;;
22652;SDS011;11493;43.344;26.226;2023-04-28T14:41:14;5.25;;;2.60;;
22652;SDS011;11493;43.344;26.226;2023-04-28T14:43:41;3.60;;;1.90;;
22652;SDS011;11493;43.344;26.226;2023-04-28T14:46:09;5.18;;;2.00;;
22652;SDS011;11493;43.344;26.226;2023-04-28T14:48:37;7.32;;;2.13;;
22652;SDS011;11493;43.344;26.226;2023-04-28T14:51:04;4.72;;;2.38;;
22652;SDS011;11493;43.344;26.226;2023-04-28T14:53:31;5.28;;;2.20;;
22652;SDS011;11493;43.344;26.226;2023-04-28T14:56:00;4.03;;;2.35;;
22652;SDS011;11493;43.344;26.226;2023-04-28T14:58:44;4.88;;;2.42;;
22652;SDS011;11493;43.344;26.226;2023-04-28T15:01:11;6.05;;;2.63;;
22652;SDS011;11493;43.344;26.226;2023-04-28T15:03:38;3.83;;;2.40;;
22652;SDS011;11493;43.344;26.226;2023-04-28T15:06:06;5.13;;;2.60;;
22652;SDS011;11493;43.344;26.226;2023-04-28T15:08:33;6.30;;;2.90;;
22652;SDS011;11493;43.344;26.226;2023-04-28T15:11:01;10.70;;;3.53;;
22652;SDS011;11493;43.344;26.226;2023-04-28T15:13:28;5.53;;;2.97;;
22652;SDS011;11493;43.344;26.226;2023-04-28T15:15:55;4.78;;;2.85;;
22652;SDS011;11493;43.344;26.226;2023-04-28T15:18:23;19.42;;;5.97;;
22652;SDS011;11493;43.344;26.226;2023-04-28T15:20:54;2.70;;;1.73;;
22652;SDS011;11493;43.344;26.226;2023-04-28T15:23:21;9.55;;;3.08;;
22652;SDS011;11493;43.344;26.226;2023-04-28T15:25:48;5.47;;;2.30;;